Time;durP1;ratioP1;P1;durP2;ratioP2;P2;SDS_P1;SDS_P2;PMS_P1;PMS_P2;Temp;Humidity;BMP_temperature;BMP_pressure;BME280_temperature;BME280_humidity;BME280_pressure;Samples;Min_cycle;Max_cycle;Signal;HPM_P1;HPM_P2
2022/09/28 00:02:26;;;;;;;3.93;3.53;;;17.90;59.40;;;;;;4990569;28;20527;-78
2022/09/28 00:04:54;;;;;;;3.73;2.93;;;17.90;59.30;;;;;;4997454;28;20447;-80
2022/09/28 00:07:22;;;;;;;4.03;3.63;;;17.80;58.50;;;;;;4999285;28;20449;-79
2022/09/28 00:09:50;;;;;;;5.50;3.57;;;17.70;57.60;;;;;;4995875;28;20492;-79
2022/09/28 00:12:19;;;;;;;4.40;3.20;;;17.60;57.40;;;;;;4988535;28;20465;-79
2022/09/28 00:14:47;;;;;;;3.13;2.83;;;17.50;57.00;;;;;;4999409;28;20449;-79
2022/09/28 00:17:21;;;;;;;4.53;2.90;;;17.40;57.10;;;;;;4991188;28;20445;-79
2022/09/28 00:19:48;;;;;;;3.80;3.40;;;17.40;57.30;;;;;;4992541;28;20461;-79
2022/09/28 00:22:16;;;;;;;4.17;3.17;;;17.30;57.00;;;;;;4998327;28;20499;-78
2022/09/28 00:24:44;;;;;;;4.00;2.80;;;17.20;57.10;;;;;;4998411;28;20441;-80
2022/09/28 00:27:12;;;;;;;3.50;3.20;;;17.20;56.80;;;;;;4997830;28;20449;-80
2022/09/28 00:29:40;;;;;;;4.93;3.17;;;17.20;56.80;;;;;;4994879;28;20481;-79
2022/09/28 00:32:10;;;;;;;3.33;3.13;;;17.10;56.60;;;;;;4997876;28;20507;-79
2022/09/28 00:34:42;;;;;;;7.43;3.30;;;17.10;56.70;;;;;;4984510;28;20465;-79
2022/09/28 00:37:10;;;;;;;8.37;3.93;;;17.00;56.00;;;;;;4992079;28;20451;-79
2022/09/28 00:39:40;;;;;;;6.17;3.30;;;17.00;56.30;;;;;;4999002;28;20452;-79
2022/09/28 00:42:13;;;;;;;5.83;3.30;;;17.00;57.00;;;;;;4998324;28;20453;-79
2022/09/28 00:44:42;;;;;;;3.60;3.23;;;16.90;56.60;;;;;;4997831;28;20468;-78
2022/09/28 00:47:36;;;;;;;3.20;3.00;;;16.90;56.60;;;;;;4995104;28;20448;-78
2022/09/28 00:50:07;;;;;;;4.07;3.67;;;17.00;56.50;;;;;;4995922;28;20574;-78
2022/09/28 00:52:36;;;;;;;5.00;3.80;;;16.90;56.30;;;;;;4997649;28;20429;-79
2022/09/28 00:55:07;;;;;;;4.60;3.60;;;16.80;56.40;;;;;;4998704;28;20438;-78
2022/09/28 00:57:34;;;;;;;3.87;3.57;;;16.80;56.30;;;;;;4996846;28;20449;-78
2022/09/28 01:00:03;;;;;;;4.00;3.40;;;16.80;56.30;;;;;;4998066;28;20461;-77
2022/09/28 01:02:31;;;;;;;5.07;3.83;;;16.80;56.30;;;;;;4994485;28;20460;-79
2022/09/28 01:05:00;;;;;;;4.20;3.80;;;16.80;56.30;;;;;;5005884;28;20465;-79
2022/09/28 01:07:31;;;;;;;3.73;3.40;;;16.80;56.20;;;;;;5001224;28;20484;-79
2022/09/28 01:09:58;;;;;;;4.57;4.13;;;16.80;56.30;;;;;;4999040;28;20512;-79
2022/09/28 01:12:26;;;;;;;9.10;4.13;;;16.80;56.00;;;;;;5001467;28;20471;-79
2022/09/28 01:14:54;;;;;;;4.07;3.67;;;16.80;56.10;;;;;;5002749;28;20452;-79
2022/09/28 01:17:24;;;;;;;5.30;3.70;;;16.80;56.30;;;;;;5011613;28;20460;-79
2022/09/28 01:20:22;;;;;;;3.40;3.10;;;16.90;56.20;;;;;;5008720;28;20442;-79
2022/09/28 01:23:20;;;;;;;5.70;3.70;;;16.80;55.60;;;;;;5007088;28;20457;-79
2022/09/28 01:25:53;;;;;;;6.80;3.37;;;16.80;56.00;;;;;;5003104;28;20437;-79
2022/09/28 01:28:23;;;;;;;4.77;3.77;;;16.90;55.50;;;;;;5001266;28;20461;-78
2022/09/28 01:30:56;;;;;;;3.97;3.57;;;16.80;55.80;;;;;;4994281;28;20473;-78
2022/09/28 01:33:26;;;;;;;4.27;3.40;;;16.90;55.70;;;;;;4998472;28;20453;-78
2022/09/28 01:35:57;;;;;;;6.07;3.93;;;16.80;55.60;;;;;;4986834;28;20454;-78
2022/09/28 01:38:26;;;;;;;5.63;3.40;;;16.80;55.60;;;;;;4996015;28;20869;-78
2022/09/28 01:40:54;;;;;;;4.43;3.70;;;16.80;55.80;;;;;;4992807;28;20478;-78
2022/09/28 01:43:25;;;;;;;3.63;3.43;;;16.80;55.80;;;;;;4992871;28;20457;-78
2022/09/28 01:45:55;;;;;;;4.60;3.40;;;16.80;55.60;;;;;;4995729;28;20453;-78
2022/09/28 01:48:26;;;;;;;4.70;4.20;;;16.70;55.30;;;;;;4992611;28;20453;-78
2022/09/28 01:50:55;;;;;;;8.03;4.10;;;16.70;55.30;;;;;;4992063;28;20477;-78
2022/09/28 01:53:24;;;;;;;4.00;3.60;;;16.70;55.50;;;;;;4998331;28;20457;-78
2022/09/28 01:55:54;;;;;;;4.23;3.80;;;16.70;55.50;;;;;;5003377;28;20464;-78
2022/09/28 01:58:24;;;;;;;7.67;3.90;;;16.70;55.50;;;;;;4995830;28;20461;-78
2022/09/28 02:00:56;;;;;;;5.70;4.47;;;16.70;55.40;;;;;;5005643;28;20464;-78
2022/09/28 02:03:25;;;;;;;4.63;4.13;;;16.70;55.50;;;;;;4999010;28;20463;-78
2022/09/28 02:05:54;;;;;;;8.23;3.57;;;16.70;55.60;;;;;;5001444;28;20449;-78
2022/09/28 02:08:25;;;;;;;3.80;3.50;;;16.80;55.60;;;;;;5003247;28;20453;-78
2022/09/28 02:10:56;;;;;;;4.27;3.87;;;16.80;55.50;;;;;;4997659;28;20513;-78
2022/09/28 02:13:26;;;;;;;6.10;4.00;;;16.80;55.60;;;;;;4998677;28;20468;-80
2022/09/28 02:15:56;;;;;;;3.90;3.37;;;16.90;55.40;;;;;;4997693;28;20442;-78
2022/09/28 02:18:25;;;;;;;6.73;3.80;;;16.90;55.30;;;;;;4999670;28;20473;-78
2022/09/28 02:20:56;;;;;;;7.50;3.50;;;16.80;55.30;;;;;;4999035;28;20470;-78
2022/09/28 02:23:24;;;;;;;4.50;3.57;;;16.80;55.60;;;;;;5004439;28;20445;-78
2022/09/28 02:25:53;;;;;;;5.93;4.00;;;16.80;55.20;;;;;;4993874;28;20464;-78
2022/09/28 02:28:21;;;;;;;9.23;3.90;;;16.80;55.60;;;;;;5000326;28;20453;-78
2022/09/28 02:30:50;;;;;;;8.23;4.30;;;16.80;55.30;;;;;;5003997;28;20477;-78
2022/09/28 02:33:19;;;;;;;4.10;3.70;;;16.80;55.20;;;;;;5000561;28;20484;-78
2022/09/28 02:35:47;;;;;;;7.40;4.57;;;16.70;55.30;;;;;;5004294;28;20437;-78
2022/09/28 02:38:15;;;;;;;5.90;3.80;;;16.70;55.50;;;;;;5001031;28;20445;-78
2022/09/28 02:40:44;;;;;;;8.60;4.13;;;16.70;55.30;;;;;;5003795;28;20476;-78
2022/09/28 02:43:14;;;;;;;5.37;4.30;;;16.60;55.20;;;;;;4995531;28;20449;-77
2022/09/28 02:45:53;;;;;;;5.70;4.27;;;16.60;55.40;;;;;;4998408;28;20449;-78
2022/09/28 02:48:42;;;;;;;4.50;4.10;;;16.60;55.60;;;;;;5003043;28;20459;-78
2022/09/28 02:51:20;;;;;;;10.20;6.53;;;16.60;55.50;;;;;;5000612;28;20484;-78
2022/09/28 02:54:02;;;;;;;18.23;8.80;;;16.60;55.50;;;;;;5002648;28;20484;-78
2022/09/28 02:56:41;;;;;;;17.47;9.83;;;16.60;55.60;;;;;;4997611;28;20445;-78
2022/09/28 02:59:12;;;;;;;13.30;7.53;;;16.60;55.40;;;;;;4994611;28;20451;-78
2022/09/28 03:01:46;;;;;;;13.97;8.20;;;16.60;55.50;;;;;;4996281;28;20465;-78
2022/09/28 03:04:19;;;;;;;8.40;6.30;;;16.60;55.20;;;;;;5003553;28;20515;-78
2022/09/28 03:06:48;;;;;;;8.93;6.40;;;16.60;55.20;;;;;;5001752;28;20453;-78
2022/09/28 03:09:19;;;;;;;8.10;6.40;;;16.50;55.20;;;;;;4999146;28;20464;-78
2022/09/28 03:11:49;;;;;;;7.43;5.60;;;16.50;55.40;;;;;;4992278;28;20473;-78
2022/09/28 03:14:17;;;;;;;6.30;5.40;;;16.50;55.40;;;;;;4999777;28;20465;-78
2022/09/28 03:16:46;;;;;;;6.80;5.27;;;16.50;55.30;;;;;;5003023;28;20453;-78
2022/09/28 03:19:14;;;;;;;5.27;4.77;;;16.40;55.10;;;;;;5003775;28;20460;-78
2022/09/28 03:21:43;;;;;;;7.47;5.50;;;16.50;55.50;;;;;;4999222;28;20470;-78
2022/09/28 03:24:11;;;;;;;6.30;5.27;;;16.50;55.30;;;;;;5000369;28;20441;-78
2022/09/28 03:26:39;;;;;;;5.03;4.50;;;16.40;55.30;;;;;;4992821;28;20473;-78
2022/09/28 03:29:07;;;;;;;8.80;4.83;;;16.40;55.20;;;;;;4998465;28;20441;-78
2022/09/28 03:31:35;;;;;;;5.13;4.47;;;16.40;55.20;;;;;;5001783;28;20468;-78
2022/09/28 03:34:05;;;;;;;6.97;4.70;;;16.40;55.30;;;;;;5000100;28;20457;-78
2022/09/28 03:36:33;;;;;;;6.97;4.47;;;16.30;55.30;;;;;;4989483;28;20912;-78
2022/09/28 03:39:01;;;;;;;5.60;4.10;;;16.30;55.30;;;;;;4998300;28;20449;-78
2022/09/28 03:41:29;;;;;;;5.23;4.73;;;16.30;55.30;;;;;;4998657;28;20468;-78
2022/09/28 03:43:57;;;;;;;5.13;4.40;;;16.40;55.50;;;;;;5000211;28;20458;-78
2022/09/28 03:46:25;;;;;;;5.80;4.37;;;16.30;55.20;;;;;;4993544;28;20466;-78
2022/09/28 03:48:56;;;;;;;7.57;4.43;;;16.30;55.40;;;;;;4999854;28;20463;-78
2022/09/28 03:51:25;;;;;;;4.77;4.37;;;16.30;55.30;;;;;;4998357;28;20488;-78
2022/09/28 03:53:53;;;;;;;5.17;4.67;;;16.40;55.60;;;;;;4988346;28;20451;-78
2022/09/28 03:56:21;;;;;;;4.50;4.10;;;16.40;55.40;;;;;;5000189;28;20501;-78
2022/09/28 03:58:49;;;;;;;8.67;4.20;;;16.40;55.70;;;;;;4993720;28;20461;-78
2022/09/28 04:01:17;;;;;;;5.90;4.90;;;16.40;55.50;;;;;;5003712;28;20488;-78
2022/09/28 04:03:45;;;;;;;6.20;4.40;;;16.40;55.50;;;;;;4998019;28;20449;-78
2022/09/28 04:06:13;;;;;;;6.93;4.67;;;16.40;55.40;;;;;;4999449;28;20457;-80
2022/09/28 04:08:43;;;;;;;5.93;4.43;;;16.50;55.40;;;;;;5001191;28;20513;-78
2022/09/28 04:11:10;;;;;;;16.00;4.70;;;16.50;55.70;;;;;;4997869;28;20529;-78
2022/09/28 04:13:38;;;;;;;9.33;4.30;;;16.40;55.40;;;;;;5001542;28;20461;-78
2022/09/28 04:16:07;;;;;;;11.60;5.40;;;16.50;55.70;;;;;;5000457;28;20464;-78
2022/09/28 04:18:35;;;;;;;8.30;5.80;;;16.50;55.90;;;;;;4996675;28;20464;-78
2022/09/28 04:21:05;;;;;;;14.83;5.87;;;16.50;55.80;;;;;;4999060;28;20465;-78
2022/09/28 04:23:33;;;;;;;14.60;8.20;;;16.50;54.80;;;;;;4995620;28;20548;-78
2022/09/28 04:26:02;;;;;;;12.27;8.07;;;16.50;55.00;;;;;;5001761;28;20449;-78
2022/09/28 04:31:17;;;;;;;14.97;8.87;;;16.40;54.90;;;;;;4997161;28;20505;-78
2022/09/28 04:33:45;;;;;;;15.67;9.00;;;16.40;55.80;;;;;;5001331;28;20453;-78
2022/09/28 04:36:13;;;;;;;10.80;7.60;;;16.30;55.60;;;;;;5004835;28;20444;-78
2022/09/28 04:38:41;;;;;;;9.50;7.40;;;16.30;55.60;;;;;;4996580;28;20468;-78
2022/09/28 04:41:21;;;;;;;9.20;6.43;;;16.30;55.60;;;;;;4995512;28;20465;-78
2022/09/28 04:43:49;;;;;;;8.53;6.70;;;16.20;55.90;;;;;;5001825;28;20473;-77
2022/09/28 04:46:17;;;;;;;10.97;6.10;;;16.20;56.00;;;;;;5002050;28;20481;-77
2022/09/28 04:48:45;;;;;;;8.20;6.10;;;16.20;55.80;;;;;;4996448;28;20594;-78
2022/09/28 04:51:13;;;;;;;9.23;6.70;;;16.20;56.10;;;;;;4997741;28;20486;-78
2022/09/28 04:53:41;;;;;;;9.23;6.60;;;16.20;55.80;;;;;;5002778;28;20461;-78
2022/09/28 04:56:10;;;;;;;9.37;6.17;;;16.20;56.00;;;;;;4995302;28;20454;-78
2022/09/28 04:58:39;;;;;;;14.10;6.50;;;16.20;56.00;;;;;;4999460;28;20481;-79
2022/09/28 05:01:08;;;;;;;8.03;5.63;;;16.20;56.10;;;;;;4994564;28;20473;-78
2022/09/28 05:03:36;;;;;;;13.17;8.50;;;16.20;56.20;;;;;;4997328;28;20453;-78
2022/09/28 05:06:07;;;;;;;11.37;7.37;;;16.20;55.30;;;;;;4997729;28;20450;-78
2022/09/28 05:08:35;;;;;;;11.97;7.63;;;16.20;55.80;;;;;;4993190;28;20457;-80
2022/09/28 05:11:05;;;;;;;12.20;7.93;;;16.10;55.70;;;;;;4997543;28;20470;-79
2022/09/28 05:13:37;;;;;;;15.57;8.33;;;16.10;56.20;;;;;;4986846;28;20536;-79
2022/09/28 05:16:06;;;;;;;10.93;7.80;;;16.10;57.00;;;;;;4998136;28;20456;-79
2022/09/28 05:18:34;;;;;;;13.27;8.57;;;16.10;56.60;;;;;;4994026;28;20459;-80
2022/09/28 05:21:02;;;;;;;11.93;8.00;;;16.20;56.20;;;;;;4997580;28;20473;-80
2022/09/28 05:23:31;;;;;;;11.40;8.40;;;16.10;56.00;;;;;;4999841;28;20457;-79
2022/09/28 05:26:01;;;;;;;13.50;8.00;;;16.10;56.60;;;;;;4994744;28;20458;-79
2022/09/28 05:28:29;;;;;;;14.90;7.60;;;16.10;56.40;;;;;;4995740;28;20466;-79
2022/09/28 05:30:59;;;;;;;11.77;7.40;;;16.10;57.10;;;;;;4996182;28;20481;-79
2022/09/28 05:33:29;;;;;;;12.17;7.07;;;16.20;57.00;;;;;;4991468;28;20446;-79
2022/09/28 05:35:57;;;;;;;13.80;7.30;;;16.20;56.90;;;;;;5000486;28;20449;-78
2022/09/28 05:38:28;;;;;;;11.93;7.20;;;16.20;56.90;;;;;;4999594;28;20463;-78
2022/09/28 05:40:56;;;;;;;8.70;6.20;;;16.30;57.00;;;;;;5002154;28;20484;-78
2022/09/28 05:43:24;;;;;;;8.93;6.50;;;16.30;56.80;;;;;;4999436;28;20453;-78
2022/09/28 05:45:52;;;;;;;13.20;6.10;;;16.30;57.10;;;;;;5002178;28;20445;-78
2022/09/28 05:48:22;;;;;;;8.10;5.57;;;16.40;56.80;;;;;;4989715;28;20454;-78
2022/09/28 05:50:52;;;;;;;11.07;6.20;;;16.40;57.00;;;;;;4997023;28;20823;-78
2022/09/28 05:53:20;;;;;;;8.80;6.17;;;16.50;57.10;;;;;;5001668;28;20480;-78
2022/09/28 05:55:48;;;;;;;8.80;6.53;;;16.50;56.30;;;;;;5002877;28;20452;-78
2022/09/28 05:58:16;;;;;;;10.67;6.93;;;16.60;56.30;;;;;;4999689;28;20464;-78
2022/09/28 06:00:44;;;;;;;14.47;8.00;;;16.60;56.80;;;;;;5002699;28;20465;-78
2022/09/28 06:03:13;;;;;;;10.90;7.37;;;16.70;56.50;;;;;;5000799;28;20456;-79
2022/09/28 06:05:41;;;;;;;15.93;7.63;;;16.70;56.80;;;;;;5001950;28;20453;-78
2022/09/28 06:08:10;;;;;;;13.40;6.83;;;16.70;57.10;;;;;;4996760;28;20460;-78
2022/09/28 06:10:39;;;;;;;10.23;7.00;;;16.70;57.10;;;;;;4999711;28;20490;-80
2022/09/28 06:13:07;;;;;;;13.13;7.70;;;16.80;57.00;;;;;;4997248;28;20473;-80
2022/09/28 06:15:35;;;;;;;11.70;8.10;;;16.80;56.60;;;;;;5000099;28;20453;-80
2022/09/28 06:18:04;;;;;;;11.13;8.17;;;16.80;56.50;;;;;;4999912;28;20449;-80
2022/09/28 06:20:34;;;;;;;16.17;7.73;;;16.80;56.80;;;;;;4988105;28;20480;-80
2022/09/28 06:23:01;;;;;;;10.73;7.53;;;16.80;57.50;;;;;;4996146;28;20446;-80
2022/09/28 06:25:31;;;;;;;14.13;8.67;;;16.80;57.50;;;;;;5001929;28;20476;-80
2022/09/28 06:28:00;;;;;;;13.70;9.50;;;16.80;57.40;;;;;;4996943;28;20448;-80
2022/09/28 06:30:29;;;;;;;17.50;9.17;;;16.90;57.60;;;;;;4999681;28;20551;-79
2022/09/28 06:32:58;;;;;;;13.33;8.70;;;16.90;57.80;;;;;;4999954;28;20487;-79
2022/09/28 06:35:27;;;;;;;12.70;9.63;;;16.90;57.40;;;;;;5001925;28;20461;-78
2022/09/28 06:37:55;;;;;;;15.20;8.70;;;17.00;57.60;;;;;;5000411;28;20503;-78
2022/09/28 06:40:23;;;;;;;20.83;10.37;;;16.90;56.90;;;;;;4994696;28;20477;-78
2022/09/28 06:42:59;;;;;;;16.73;9.77;;;17.00;57.20;;;;;;5003284;28;20476;-78
2022/09/28 06:45:28;;;;;;;17.13;10.90;;;17.00;57.30;;;;;;5005296;28;20449;-78
2022/09/28 06:47:57;;;;;;;18.50;11.10;;;17.00;57.00;;;;;;5005842;28;20496;-78
2022/09/28 06:50:25;;;;;;;27.93;13.90;;;16.90;57.50;;;;;;4997212;28;20473;-78
2022/09/28 06:52:52;;;;;;;35.10;19.27;;;16.90;57.20;;;;;;5005670;28;20464;-78
2022/09/28 06:55:20;;;;;;;39.20;20.83;;;16.90;57.90;;;;;;5003758;28;20457;-78
2022/09/28 06:57:58;;;;;;;34.27;20.97;;;16.90;57.90;;;;;;4998483;28;20585;-78
2022/09/28 07:00:26;;;;;;;33.20;19.43;;;16.90;58.00;;;;;;5002628;28;20480;-78
2022/09/28 07:02:54;;;;;;;34.67;20.83;;;16.90;57.80;;;;;;5002285;28;20453;-78
2022/09/28 07:05:23;;;;;;;34.27;18.30;;;16.90;57.00;;;;;;4998133;28;20453;-78
2022/09/28 07:07:51;;;;;;;31.80;17.70;;;16.90;57.40;;;;;;5004728;28;20452;-78
2022/09/28 07:10:19;;;;;;;28.60;17.17;;;17.00;58.20;;;;;;5003456;28;21177;-78
2022/09/28 07:12:46;;;;;;;27.47;16.13;;;17.00;57.90;;;;;;4995528;28;20472;-78
2022/09/28 07:15:16;;;;;;;31.53;16.50;;;17.10;57.90;;;;;;4996678;28;20953;-78
2022/09/28 07:17:43;;;;;;;31.03;17.37;;;17.10;57.70;;;;;;5000404;28;20453;-78
2022/09/28 07:20:27;;;;;;;31.30;16.70;;;17.10;58.10;;;;;;5000024;28;20477;-78
2022/09/28 07:22:55;;;;;;;28.07;16.50;;;17.10;56.70;;;;;;5002871;28;20454;-78
2022/09/28 07:25:28;;;;;;;30.47;16.67;;;17.00;57.80;;;;;;4998963;28;20519;-78
2022/09/28 07:27:58;;;;;;;31.00;16.27;;;17.00;57.00;;;;;;5001885;28;20460;-78
2022/09/28 07:30:31;;;;;;;23.77;14.83;;;17.00;57.90;;;;;;5003020;28;20473;-79
2022/09/28 07:32:59;;;;;;;27.10;14.87;;;17.10;57.30;;;;;;4995918;28;20473;-80
2022/09/28 07:35:27;;;;;;;26.03;15.47;;;17.00;58.10;;;;;;5000018;28;20458;-78
2022/09/28 07:38:00;;;;;;;28.80;14.40;;;17.10;57.90;;;;;;5007082;28;20987;-78
2022/09/28 07:43:19;;;;;;;26.43;15.30;;;17.20;57.20;;;;;;4998522;28;20509;-80
2022/09/28 07:45:48;;;;;;;26.43;16.10;;;17.10;58.10;;;;;;5001832;28;20453;-78
2022/09/28 07:48:17;;;;;;;23.90;15.33;;;17.20;57.20;;;;;;5001439;28;20468;-78
2022/09/28 07:50:49;;;;;;;25.90;14.50;;;17.10;57.40;;;;;;4996963;28;20489;-78
2022/09/28 07:53:17;;;;;;;25.33;15.23;;;17.10;58.30;;;;;;4993974;28;20470;-78
2022/09/28 07:55:50;;;;;;;24.57;14.33;;;17.10;58.00;;;;;;4994114;28;20504;-79
2022/09/28 07:58:19;;;;;;;22.27;14.67;;;17.10;57.80;;;;;;4991307;28;20458;-79
2022/09/28 08:00:48;;;;;;;22.10;13.97;;;17.20;56.90;;;;;;4991837;28;20473;-79
2022/09/28 08:03:16;;;;;;;21.27;14.23;;;17.20;57.20;;;;;;4996722;28;20453;-79
2022/09/28 08:05:45;;;;;;;24.43;14.50;;;17.20;57.60;;;;;;4992862;28;20461;-78
2022/09/28 08:08:13;;;;;;;22.17;14.87;;;17.30;57.00;;;;;;5000030;28;20460;-78
2022/09/28 08:10:42;;;;;;;23.40;15.37;;;17.30;57.70;;;;;;5000648;28;20469;-78
2022/09/28 08:13:15;;;;;;;26.57;16.23;;;17.40;57.70;;;;;;4999845;28;20477;-78
2022/09/28 08:15:43;;;;;;;24.07;15.20;;;17.50;56.80;;;;;;4993294;28;20458;-78
2022/09/28 08:18:12;;;;;;;24.80;14.30;;;17.50;56.90;;;;;;4999600;28;20461;-78
2022/09/28 08:23:26;;;;;;;23.70;14.90;;;17.50;57.50;;;;;;4983780;28;20461;-80
2022/09/28 08:25:54;;;;;;;22.60;14.60;;;17.60;57.10;;;;;;4999987;28;20445;-79
2022/09/28 08:28:22;;;;;;;23.50;15.23;;;17.60;57.20;;;;;;5001599;28;20445;-80
2022/09/28 08:30:50;;;;;;;25.93;15.70;;;17.70;56.80;;;;;;4983579;28;20474;-79
2022/09/28 08:33:20;;;;;;;29.27;16.60;;;17.60;56.90;;;;;;4989634;28;20476;-78
2022/09/28 08:35:54;;;;;;;25.70;15.57;;;17.70;57.00;;;;;;4999988;28;20457;-78
2022/09/28 08:38:22;;;;;;;23.17;15.50;;;17.60;56.50;;;;;;4984195;28;20458;-78
2022/09/28 08:40:56;;;;;;;29.97;16.20;;;17.60;57.40;;;;;;4994297;28;20481;-78
2022/09/28 08:43:35;;;;;;;24.50;15.80;;;17.70;56.50;;;;;;4998581;28;20449;-78
2022/09/28 08:46:04;;;;;;;26.27;15.53;;;17.80;57.40;;;;;;4997391;28;20446;-78
2022/09/28 08:48:45;;;;;;;27.37;16.93;;;17.80;56.60;;;;;;4995358;28;20456;-78
2022/09/28 08:51:35;;;;;;;25.17;15.17;;;17.70;56.40;;;;;;4979573;28;20606;-78
2022/09/28 08:54:04;;;;;;;26.07;15.60;;;17.80;57.00;;;;;;4989456;28;20492;-78
2022/09/28 08:56:40;;;;;;;24.83;14.77;;;17.80;56.60;;;;;;4988875;28;20453;-78
2022/09/28 08:59:11;;;;;;;23.20;15.43;;;17.70;56.70;;;;;;4991183;28;20520;-78
2022/09/28 09:01:42;;;;;;;24.53;15.00;;;17.80;57.10;;;;;;4989630;28;20465;-78
2022/09/28 09:04:11;;;;;;;22.50;14.03;;;17.80;57.20;;;;;;4991717;28;20445;-78
2022/09/28 09:06:52;;;;;;;25.83;15.07;;;17.90;57.20;;;;;;4995503;28;20491;-79
2022/09/28 09:09:23;;;;;;;27.27;16.07;;;18.00;56.80;;;;;;4996976;28;20500;-79
2022/09/28 09:11:56;;;;;;;24.73;15.10;;;18.00;56.30;;;;;;4997048;28;20466;-80
2022/09/28 09:14:54;;;;;;;26.43;16.20;;;18.10;56.60;;;;;;4990214;28;20485;-77
2022/09/28 09:17:26;;;;;;;25.37;15.03;;;18.10;56.20;;;;;;4998016;28;20452;-78
2022/09/28 09:19:59;;;;;;;25.27;16.10;;;18.10;56.30;;;;;;4997452;28;20477;-78
2022/09/28 09:22:35;;;;;;;27.90;15.67;;;18.10;56.10;;;;;;4999871;28;20449;-78
2022/09/28 09:25:07;;;;;;;28.63;16.70;;;18.00;56.80;;;;;;4997404;28;21018;-79
2022/09/28 09:27:43;;;;;;;32.50;18.80;;;18.00;56.10;;;;;;4994230;28;20449;-77
2022/09/28 09:30:11;;;;;;;27.97;18.40;;;18.00;56.50;;;;;;4979912;28;20474;-80
2022/09/28 09:33:11;;;;;;;34.17;17.57;;;18.10;56.70;;;;;;4989999;28;20454;-79
2022/09/28 09:35:59;;;;;;;30.90;16.80;;;18.10;56.70;;;;;;4972563;28;20552;-78
2022/09/28 09:38:50;;;;;;;27.10;15.40;;;18.10;56.60;;;;;;4993056;28;20468;-78
2022/09/28 09:41:23;;;;;;;28.73;16.60;;;18.20;56.10;;;;;;4996118;28;20474;-78
2022/09/28 09:44:10;;;;;;;27.30;15.40;;;18.30;56.10;;;;;;4997136;28;20987;-78
2022/09/28 09:46:40;;;;;;;30.80;16.53;;;18.40;56.60;;;;;;4974852;28;20456;-78
2022/09/28 09:49:11;;;;;;;26.80;15.97;;;18.50;56.10;;;;;;4989197;28;20453;-78
2022/09/28 09:51:43;;;;;;;22.80;14.20;;;18.60;56.10;;;;;;4992991;28;20469;-78
2022/09/28 09:54:16;;;;;;;22.67;13.90;;;18.80;56.10;;;;;;4996955;28;20469;-78
2022/09/28 09:56:45;;;;;;;22.40;13.80;;;18.90;55.40;;;;;;4994552;28;20445;-78
2022/09/28 09:59:14;;;;;;;19.27;12.50;;;19.20;55.60;;;;;;4996891;28;20478;-78
2022/09/28 10:01:43;;;;;;;21.27;12.90;;;19.60;56.00;;;;;;4997441;28;20473;-78
2022/09/28 10:04:14;;;;;;;17.30;11.23;;;20.10;55.00;;;;;;4999225;28;20514;-78
2022/09/28 10:06:44;;;;;;;19.30;11.67;;;20.40;53.80;;;;;;4995736;28;20468;-78
2022/09/28 10:09:14;;;;;;;18.40;11.33;;;20.50;53.10;;;;;;4999236;28;20441;-78
2022/09/28 10:11:43;;;;;;;15.93;10.13;;;20.50;52.60;;;;;;4989780;28;20470;-78
2022/09/28 10:14:13;;;;;;;16.50;10.43;;;20.70;53.60;;;;;;4980742;28;20478;-78
2022/09/28 10:16:42;;;;;;;14.97;10.17;;;21.00;51.60;;;;;;5000340;28;20445;-78
2022/09/28 10:19:10;;;;;;;12.90;9.37;;;21.00;51.40;;;;;;5003176;28;20468;-78
2022/09/28 10:21:40;;;;;;;12.90;8.70;;;21.10;51.20;;;;;;4998320;28;20469;-78
2022/09/28 10:24:12;;;;;;;13.97;9.30;;;21.30;51.50;;;;;;4998906;28;20441;-78
2022/09/28 10:26:41;;;;;;;11.87;8.67;;;21.70;50.70;;;;;;5000825;28;20423;-78
2022/09/28 10:29:13;;;;;;;13.70;8.23;;;22.00;50.40;;;;;;4992342;28;20451;-78
2022/09/28 10:31:42;;;;;;;12.57;8.00;;;22.20;49.00;;;;;;5011913;28;20466;-79
2022/09/28 10:34:12;;;;;;;10.20;7.53;;;22.20;49.00;;;;;;4995866;28;20483;-79
2022/09/28 10:36:47;;;;;;;10.57;7.90;;;22.30;48.90;;;;;;4998574;28;20465;-80
2022/09/28 10:39:30;;;;;;;8.47;6.43;;;22.60;48.60;;;;;;4998752;28;20465;-78
2022/09/28 10:42:01;;;;;;;7.70;6.40;;;22.90;49.30;;;;;;5000318;28;20458;-80
2022/09/28 10:44:29;;;;;;;9.30;7.07;;;22.90;47.50;;;;;;5001990;28;20445;-80
2022/09/28 10:46:58;;;;;;;9.10;6.80;;;22.90;46.60;;;;;;4989247;28;20453;-79
2022/09/28 10:49:27;;;;;;;10.10;7.17;;;22.90;48.10;;;;;;5002765;28;20454;-78
2022/09/28 10:51:56;;;;;;;8.67;7.20;;;22.90;47.10;;;;;;5002340;28;20438;-78
2022/09/28 10:54:27;;;;;;;8.43;6.60;;;23.10;46.50;;;;;;5001665;28;20477;-78
2022/09/28 10:56:55;;;;;;;9.40;7.73;;;23.10;46.40;;;;;;4995970;28;20504;-78
2022/09/28 10:59:28;;;;;;;10.67;7.27;;;23.30;45.90;;;;;;5001520;28;20448;-78
2022/09/28 11:01:59;;;;;;;9.80;7.50;;;23.50;46.70;;;;;;4999266;28;20439;-78
2022/09/28 11:04:28;;;;;;;10.20;7.73;;;23.80;45.50;;;;;;5002243;28;20528;-78
2022/09/28 11:06:58;;;;;;;9.73;7.40;;;24.00;45.00;;;;;;5000743;28;20420;-77
2022/09/28 11:09:29;;;;;;;9.40;7.23;;;24.50;45.60;;;;;;4996495;28;20424;-77
2022/09/28 11:11:58;;;;;;;10.40;7.63;;;25.30;42.80;;;;;;4996814;28;20427;-77
2022/09/28 11:14:27;;;;;;;8.00;6.40;;;25.90;43.10;;;;;;4991465;28;20557;-78
2022/09/28 11:17:17;;;;;;;8.07;6.90;;;27.20;42.20;;;;;;5001105;28;20449;-78
2022/09/28 11:19:45;;;;;;;7.00;6.30;;;28.60;39.50;;;;;;4999791;28;20501;-80
2022/09/28 11:22:28;;;;;;;7.07;6.37;;;29.80;37.10;;;;;;5011992;28;20416;-78
2022/09/28 11:25:19;;;;;;;7.70;5.97;;;28.80;35.80;;;;;;4998181;28;20444;-78
2022/09/28 11:27:55;;;;;;;6.03;5.50;;;27.60;36.80;;;;;;5000148;28;20437;-78
2022/09/28 11:30:24;;;;;;;5.70;5.10;;;28.30;38.50;;;;;;4991551;28;20479;-80
2022/09/28 11:32:53;;;;;;;3.50;3.07;;;29.80;36.80;;;;;;4995923;28;20420;-80
2022/09/28 11:35:23;;;;;;;8.20;4.60;;;31.60;36.70;;;;;;4999533;28;20484;-81
2022/09/28 11:38:00;;;;;;;4.40;3.87;;;32.50;33.60;;;;;;5016193;28;20488;-80
2022/09/28 11:40:36;;;;;;;5.47;4.53;;;33.60;32.80;;;;;;5009224;28;20484;-80
2022/09/28 11:43:09;;;;;;;4.37;4.17;;;34.30;30.30;;;;;;5001045;28;20437;-79
2022/09/28 11:45:47;;;;;;;2.80;2.50;;;34.90;29.20;;;;;;4995900;28;20456;-79
2022/09/28 11:48:15;;;;;;;4.00;3.60;;;35.00;29.20;;;;;;4990754;28;20472;-79
2022/09/28 11:50:46;;;;;;;2.77;2.57;;;35.10;28.70;;;;;;4998226;28;20469;-79
2022/09/28 11:53:30;;;;;;;4.10;2.90;;;35.10;28.50;;;;;;4978847;28;20453;-78
2022/09/28 11:56:05;;;;;;;3.80;3.57;;;35.20;28.30;;;;;;4992113;28;20474;-79
2022/09/28 11:58:37;;;;;;;6.40;3.57;;;35.90;26.00;;;;;;4989534;28;20456;-79
2022/09/28 12:04:26;;;;;;;3.30;2.57;;;36.70;25.80;;;;;;4964788;28;20458;-80
2022/09/28 12:06:57;;;;;;;3.63;2.80;;;37.10;25.50;;;;;;4988838;28;20434;-79
2022/09/28 12:09:27;;;;;;;3.40;3.13;;;34.80;27.00;;;;;;4996084;28;20445;-80
2022/09/28 12:12:00;;;;;;;8.23;3.17;;;32.90;28.90;;;;;;4997384;28;20436;-78
2022/09/28 12:14:29;;;;;;;4.57;3.23;;;31.60;30.00;;;;;;4997438;28;20441;-79
2022/09/28 12:16:59;;;;;;;14.13;3.73;;;30.40;31.40;;;;;;4982023;28;20454;-80
2022/09/28 12:19:36;;;;;;;4.60;4.03;;;29.70;32.70;;;;;;4999395;28;20449;-82
2022/09/28 12:22:09;;;;;;;8.13;4.90;;;29.00;33.80;;;;;;5003491;28;20471;-80
2022/09/28 12:24:38;;;;;;;5.80;3.20;;;28.70;34.50;;;;;;4998789;28;20457;-79
2022/09/28 12:27:12;;;;;;;3.60;2.80;;;30.30;32.00;;;;;;5001987;28;20508;-80
2022/09/28 12:29:41;;;;;;;4.10;3.80;;;30.90;32.10;;;;;;5002569;28;20453;-78
2022/09/28 12:32:12;;;;;;;3.93;3.70;;;32.50;29.60;;;;;;5004216;28;20827;-79
2022/09/28 12:34:41;;;;;;;2.03;1.93;;;33.90;28.50;;;;;;4996371;28;20464;-78
2022/09/28 12:37:24;;;;;;;2.07;1.97;;;34.70;27.50;;;;;;4989995;28;20446;-78
2022/09/28 12:40:01;;;;;;;6.80;2.60;;;33.40;27.40;;;;;;4984876;28;20527;-81
2022/09/28 12:42:48;;;;;;;2.57;2.40;;;31.70;28.50;;;;;;4998074;28;20456;-81
2022/09/28 12:45:42;;;;;;;3.23;1.93;;;30.50;30.40;;;;;;4985808;28;20450;-81
2022/09/28 12:48:44;;;;;;;4.30;2.10;;;29.70;32.10;;;;;;4999076;28;20483;-79
2022/09/28 12:51:40;;;;;;;5.30;2.57;;;29.00;33.60;;;;;;4975488;28;20521;-79
2022/09/28 12:54:13;;;;;;;6.87;2.27;;;28.40;34.80;;;;;;4978652;28;20453;-79
2022/09/28 12:56:56;;;;;;;3.87;1.97;;;28.00;35.60;;;;;;4989521;28;20535;-78
2022/09/28 12:59:28;;;;;;;2.30;2.10;;;27.60;36.30;;;;;;4989002;28;20465;-80
2022/09/28 13:02:13;;;;;;;2.70;2.17;;;27.20;36.60;;;;;;4990183;28;20457;-78
2022/09/28 13:04:50;;;;;;;2.27;2.07;;;26.80;37.60;;;;;;4974336;28;20457;-76
2022/09/28 13:07:22;;;;;;;2.17;2.00;;;26.60;38.00;;;;;;4984436;28;20440;-76
2022/09/28 13:09:56;;;;;;;3.73;1.90;;;26.50;38.70;;;;;;4986664;28;20439;-78
2022/09/28 13:12:33;;;;;;;11.37;2.00;;;26.40;38.70;;;;;;4984060;28;20453;-79